Garland's Hourly Summary for Tuesday, May 15, 2018
Hour Temp
(f)
RH
(%)
Solar Rad.
(MJ/m2)
Rainfall
(in)
Wind
(mph)
5/15/2018 12:00 AM 77 63 0 0 6.35
5/15/2018 1:00 AM 76 63 0 0 6.26
5/15/2018 2:00 AM 76 64 0 0 6.29
5/15/2018 3:00 AM 75 64 0 0 5.51
5/15/2018 4:00 AM 75 68 0 0 6.49
5/15/2018 5:00 AM 74 68 0 0 5.76
5/15/2018 6:00 AM 73 68 0 0 3.51
5/15/2018 7:00 AM 73 70 0.01 0 3.96
5/15/2018 8:00 AM 73 71 0.25 0 3.9
5/15/2018 9:00 AM 72 71 0.32 0 6.44
5/15/2018 10:00 AM 70 75 0.15 0.12 5.56
5/15/2018 11:00 AM 69 93 0.79 0 4.85
5/15/2018 12:00 PM 72 74 1.52 0 7.75
5/15/2018 1:00 PM 75 58 2.17 0 8.88
5/15/2018 2:00 PM 77 56 1.55 0 8.63
5/15/2018 3:00 PM 81 48 2.93 0 5.89
5/15/2018 4:00 PM 83 41 2.81 0 6.02
5/15/2018 5:00 PM 83 41 1.34 0 3.94
5/15/2018 6:00 PM 83 40 0.56 0 5.57
5/15/2018 7:00 PM 81 43 0.35 0 5.64
5/15/2018 8:00 PM 75 56 0.25 0 7.46
5/15/2018 9:00 PM 73 61 0.01 0 6.51
5/15/2018 10:00 PM 72 64 0 0 2.14
5/15/2018 11:00 PM 71 66 0 0 0.29
Data Summary 75 61 15.01 0.12 5.57